createdAt,value
2018-09-10T00:00:12.168Z,83.92
2018-09-10T00:02:41.088Z,84.19
2018-09-10T00:05:09.957Z,84.19
2018-09-10T00:07:38.818Z,84.02
2018-09-10T00:10:07.968Z,83.75
2018-09-10T00:12:38.332Z,83.69
2018-09-10T00:15:08.115Z,84.44
2018-09-10T00:17:37.253Z,84.34
2018-09-10T00:20:06.667Z,83.63
2018-09-10T00:22:35.608Z,84.85
2018-09-10T00:25:05.017Z,86.04
2018-09-10T00:27:34.029Z,85.46
2018-09-10T00:30:02.950Z,86.57
2018-09-10T00:32:32.116Z,85.77
2018-09-10T00:35:01.360Z,85.63
2018-09-10T00:37:30.564Z,85.94
2018-09-10T00:39:59.668Z,86.89
2018-09-10T00:42:28.700Z,87.63
2018-09-10T00:44:57.962Z,87.89
2018-09-10T00:47:27.348Z,89.72
2018-09-10T00:49:56.339Z,88.07
2018-09-10T00:52:25.224Z,89.86
2018-09-10T00:54:54.068Z,91.23
2018-09-10T00:57:22.907Z,91.17
2018-09-10T00:59:52.028Z,91.55
2018-09-10T01:02:20.983Z,91.63
2018-09-10T01:04:49.824Z,92.60
2018-09-10T01:07:18.802Z,91.88
2018-09-10T01:09:48.000Z,91.21
2018-09-10T01:12:16.867Z,92.54
2018-09-10T01:14:46.123Z,92.56
2018-09-10T01:17:15.040Z,92.45
2018-09-10T01:19:44.288Z,91.50
2018-09-10T01:22:13.548Z,91.05
2018-09-10T01:24:42.962Z,89.42
2018-09-10T01:27:12.229Z,88.34
2018-09-10T01:29:41.648Z,87.66
2018-09-10T01:32:10.888Z,89.39
2018-09-10T01:34:45.524Z,91.83
2018-09-10T01:37:14.708Z,91.68
2018-09-10T01:39:44.005Z,92.77
2018-09-10T01:42:13.135Z,92.06
2018-09-10T01:44:42.524Z,89.82
2018-09-10T01:47:11.676Z,90.13
2018-09-10T01:49:40.845Z,90.55
2018-09-10T01:52:09.785Z,90.12
2018-09-10T01:54:38.704Z,90.85
2018-09-10T01:57:07.920Z,90.66
2018-09-10T01:59:37.244Z,90.53
2018-09-10T02:02:06.636Z,89.93
2018-09-10T02:04:35.804Z,88.92
2018-09-10T02:07:04.756Z,89.52
2018-09-10T02:09:34.011Z,89.77
2018-09-10T02:12:02.936Z,89.40
2018-09-10T02:14:31.856Z,89.01
2018-09-10T02:17:00.898Z,89.43
2018-09-10T02:19:29.748Z,89.08
2018-09-10T02:21:58.649Z,87.97
2018-09-10T02:24:27.488Z,88.11
2018-09-10T02:26:56.444Z,87.90
2018-09-10T02:29:25.288Z,87.10
2018-09-10T02:31:54.165Z,87.48
2018-09-10T02:34:23.211Z,87.65
2018-09-10T02:36:52.155Z,88.26
2018-09-10T02:39:21.136Z,89.43
2018-09-10T02:41:50.216Z,89.26
2018-09-10T02:44:19.214Z,89.37
2018-09-10T02:46:48.336Z,89.36
2018-09-10T02:49:17.610Z,88.74
2018-09-10T02:51:47.392Z,88.36
2018-09-10T02:54:16.520Z,87.21
2018-09-10T02:56:45.352Z,86.85
2018-09-10T02:59:15.181Z,86.67
2018-09-10T03:01:44.332Z,85.23
2018-09-10T03:04:13.492Z,85.14
2018-09-10T03:06:42.881Z,86.88
2018-09-10T03:09:12.123Z,86.82
2018-09-10T03:11:41.453Z,86.44
2018-09-10T03:14:10.761Z,84.67
2018-09-10T03:16:39.596Z,85.40
2018-09-10T03:19:09.060Z,86.87
2018-09-10T03:21:38.228Z,86.55
2018-09-10T03:24:07.168Z,86.41
2018-09-10T03:26:36.590Z,88.25
2018-09-10T03:29:05.766Z,86.42
2018-09-10T03:31:34.702Z,86.78
2018-09-10T03:34:03.832Z,85.87
2018-09-10T03:36:32.801Z,85.33
2018-09-10T03:39:01.784Z,85.62
2018-09-10T03:41:31.060Z,86.45
2018-09-10T03:43:59.980Z,86.93
2018-09-10T03:46:28.916Z,86.63
2018-09-10T03:48:57.981Z,85.53
2018-09-10T03:51:27.254Z,84.87
2018-09-10T03:53:56.624Z,86.54
2018-09-10T03:56:25.993Z,85.51
2018-09-10T03:58:55.320Z,85.51
2018-09-10T04:01:24.234Z,85.90
2018-09-10T04:03:53.491Z,85.82
2018-09-10T04:06:22.668Z,85.57
2018-09-10T04:08:51.612Z,86.22
2018-09-10T04:11:20.613Z,85.17
2018-09-10T04:13:49.572Z,84.75
2018-09-10T04:16:18.643Z,83.73
2018-09-10T04:18:47.840Z,86.11
2018-09-10T04:21:17.159Z,82.40
2018-09-10T04:23:46.570Z,84.64
2018-09-10T04:26:16.057Z,85.28
2018-09-10T04:28:45.396Z,85.80
2018-09-10T04:31:14.628Z,83.21
2018-09-10T04:33:44.060Z,83.81
2018-09-10T04:36:13.509Z,84.41
2018-09-10T04:38:42.694Z,85.30
2018-09-10T04:41:11.629Z,83.46
2018-09-10T04:43:40.882Z,84.09
2018-09-10T04:46:10.115Z,82.14
2018-09-10T04:48:39.469Z,82.48
2018-09-10T04:51:08.525Z,82.85
2018-09-10T04:53:37.778Z,83.29
2018-09-10T04:56:06.702Z,84.55
2018-09-10T04:58:35.520Z,84.17
2018-09-10T05:01:04.644Z,83.02
2018-09-10T05:03:33.540Z,83.38
2018-09-10T05:06:02.474Z,83.46
2018-09-10T05:08:31.396Z,82.74
2018-09-10T05:11:00.301Z,81.46
2018-09-10T05:13:29.774Z,82.20
2018-09-10T05:15:58.849Z,80.42
2018-09-10T05:18:27.768Z,79.01
2018-09-10T05:20:56.591Z,78.41
2018-09-10T05:23:25.451Z,78.91
2018-09-10T05:25:54.292Z,77.87
2018-09-10T05:28:23.372Z,76.89
2018-09-10T05:30:52.657Z,75.37
2018-09-10T05:33:21.776Z,76.78
2018-09-10T05:35:50.716Z,74.58
2018-09-10T05:38:19.696Z,74.30
2018-09-10T05:40:48.884Z,75.17
2018-09-10T05:43:17.923Z,75.21
2018-09-10T05:45:47.247Z,74.93
2018-09-10T05:48:16.221Z,74.50
2018-09-10T05:50:45.380Z,73.92
2018-09-10T05:53:14.327Z,74.69
2018-09-10T05:55:43.176Z,75.04
2018-09-10T05:58:12.096Z,73.65
2018-09-10T06:00:41.321Z,69.76
2018-09-10T06:03:10.227Z,71.46
2018-09-10T06:05:39.157Z,69.11
2018-09-10T06:08:08.949Z,68.63
2018-09-10T06:10:38.028Z,68.90
2018-09-10T06:13:07.136Z,70.23
2018-09-10T06:15:36.150Z,70.29
2018-09-10T06:18:05.177Z,69.31
2018-09-10T06:20:34.165Z,67.58
2018-09-10T06:23:03.104Z,68.34
2018-09-10T06:25:32.048Z,68.69
2018-09-10T06:28:00.969Z,67.35
2018-09-10T06:30:29.862Z,67.91
2018-09-10T06:32:58.779Z,67.44
2018-09-10T06:35:27.724Z,66.25
2018-09-10T06:37:56.597Z,65.68
2018-09-10T06:40:25.538Z,65.36
2018-09-10T06:42:55.276Z,64.56
2018-09-10T06:45:24.185Z,63.40
2018-09-10T06:47:53.446Z,64.76
2018-09-10T06:50:22.264Z,65.06
2018-09-10T06:52:51.585Z,63.16
2018-09-10T06:55:20.408Z,64.23
2018-09-10T06:57:49.456Z,62.58
2018-09-10T07:00:18.399Z,62.27
2018-09-10T07:02:47.712Z,60.94
2018-09-10T07:05:16.780Z,62.22
2018-09-10T07:07:45.811Z,60.62
2018-09-10T07:10:15.457Z,57.98
2018-09-10T07:12:44.555Z,58.52
2018-09-10T07:15:14.040Z,55.97
2018-09-10T07:17:43.073Z,57.43
2018-09-10T07:20:12.060Z,58.26
2018-09-10T07:22:41.414Z,58.53
2018-09-10T07:25:10.600Z,59.10
2018-09-10T07:27:39.745Z,60.02
2018-09-10T07:30:08.712Z,59.39
2018-09-10T07:32:37.611Z,57.85
2018-09-10T07:35:06.420Z,58.95
2018-09-10T07:37:35.648Z,56.60
2018-09-10T07:40:04.581Z,57.49
2018-09-10T07:42:33.908Z,55.15
2018-09-10T07:45:02.818Z,56.17
2018-09-10T07:47:31.741Z,58.67
2018-09-10T07:50:00.953Z,58.71
2018-09-10T07:52:30.229Z,58.29
2018-09-10T07:54:59.389Z,57.35
2018-09-10T07:57:28.376Z,56.53
2018-09-10T07:59:57.468Z,58.10
2018-09-10T08:02:26.624Z,55.04
2018-09-10T08:04:55.564Z,56.36
2018-09-10T08:07:24.803Z,56.76
2018-09-10T08:09:53.825Z,56.06
2018-09-10T08:12:22.657Z,54.75
2018-09-10T08:14:51.820Z,54.90
2018-09-10T08:17:20.612Z,53.51
2018-09-10T08:19:50.053Z,53.71
2018-09-10T08:22:19.020Z,55.06
2018-09-10T08:24:47.831Z,55.92
2018-09-10T08:27:17.104Z,54.42
2018-09-10T08:29:45.943Z,54.89
2018-09-10T08:32:14.976Z,52.76
2018-09-10T08:34:43.938Z,54.36
2018-09-10T08:37:12.872Z,54.63
2018-09-10T08:39:41.797Z,54.71
2018-09-10T08:42:10.739Z,55.20
2018-09-10T08:44:40.028Z,52.08
2018-09-10T08:47:09.253Z,51.73
2018-09-10T08:49:38.283Z,52.56
2018-09-10T08:52:07.201Z,53.59
2018-09-10T08:54:36.481Z,54.54
2018-09-10T08:57:05.434Z,53.36
2018-09-10T08:59:34.400Z,53.49
2018-09-10T09:02:03.419Z,53.94
2018-09-10T09:04:32.484Z,55.29
2018-09-10T09:07:01.505Z,54.62
2018-09-10T09:09:30.337Z,55.58
2018-09-10T09:11:59.155Z,54.82
2018-09-10T09:14:28.236Z,55.25
2018-09-10T09:16:57.182Z,55.22
2018-09-10T09:19:26.148Z,54.67
2018-09-10T09:21:55.189Z,54.99
2018-09-10T09:24:24.067Z,53.52
2018-09-10T09:26:52.980Z,52.80
2018-09-10T09:29:21.931Z,52.58
2018-09-10T09:31:51.232Z,53.75
2018-09-10T09:34:20.324Z,53.94
2018-09-10T09:36:54.424Z,50.06
2018-09-10T09:39:29.060Z,54.06
2018-09-10T09:42:03.394Z,54.48
2018-09-10T09:44:37.401Z,52.93
2018-09-10T09:47:06.381Z,52.82
2018-09-10T09:49:35.797Z,54.31
2018-09-10T09:52:05.244Z,53.29
2018-09-10T09:54:34.061Z,52.34
2018-09-10T09:57:03.575Z,52.50
2018-09-10T09:59:32.421Z,50.05
2018-09-10T10:02:06.816Z,51.43
2018-09-10T10:04:35.834Z,50.43
2018-09-10T10:07:04.700Z,51.53
2018-09-10T10:09:33.620Z,52.90
2018-09-10T10:12:02.593Z,52.30
2018-09-10T10:14:31.566Z,52.17
2018-09-10T10:17:00.508Z,50.97
2018-09-10T10:19:29.423Z,50.77
2018-09-10T10:21:58.269Z,50.28
2018-09-10T10:24:27.173Z,50.32
2018-09-10T10:26:56.019Z,49.26
2018-09-10T10:29:24.977Z,49.38
2018-09-10T10:31:53.894Z,49.61
2018-09-10T10:34:22.810Z,49.35
2018-09-10T10:36:51.912Z,48.72
2018-09-10T10:39:20.852Z,45.43
2018-09-10T10:41:49.744Z,44.51
2018-09-10T10:44:19.029Z,45.30
2018-09-10T10:46:48.300Z,43.78
2018-09-10T10:49:18.129Z,47.03
2018-09-10T10:51:47.183Z,46.81
2018-09-10T10:54:16.108Z,40.44
2018-09-10T10:56:45.060Z,41.04
2018-09-10T10:59:14.040Z,41.12
2018-09-10T11:01:42.985Z,39.60
2018-09-10T11:04:12.166Z,43.60
2018-09-10T11:06:41.348Z,43.93
2018-09-10T11:09:10.260Z,40.72
2018-09-10T11:11:39.060Z,42.13
2018-09-10T11:14:08.053Z,39.84
2018-09-10T11:16:37.068Z,40.02
2018-09-10T11:19:05.876Z,40.51
2018-09-10T11:21:34.948Z,40.54
2018-09-10T11:24:03.831Z,40.79
2018-09-10T11:26:33.078Z,38.79
2018-09-10T11:29:02.297Z,40.62
2018-09-10T11:31:31.552Z,39.09
2018-09-10T11:34:00.541Z,39.14
2018-09-10T11:36:29.822Z,37.09
2018-09-10T11:38:58.760Z,37.06
2018-09-10T11:41:28.042Z,38.76
2018-09-10T11:43:56.900Z,38.19
2018-09-10T11:46:25.837Z,36.60
2018-09-10T11:48:54.648Z,35.88
2018-09-10T11:51:23.600Z,38.08
2018-09-10T11:53:52.535Z,36.43
2018-09-10T11:56:21.441Z,36.61
2018-09-10T11:58:50.973Z,36.48
2018-09-10T12:01:19.966Z,36.60
2018-09-10T12:03:48.913Z,35.82
2018-09-10T12:06:17.735Z,34.79
2018-09-10T12:08:46.693Z,34.89
2018-09-10T12:11:15.615Z,34.18
2018-09-10T12:13:44.893Z,34.20
2018-09-10T12:16:14.068Z,33.22
2018-09-10T12:18:42.942Z,32.81
2018-09-10T12:21:11.775Z,34.78
2018-09-10T12:23:40.775Z,35.91
2018-09-10T12:26:09.911Z,34.78
2018-09-10T12:28:39.028Z,34.20
2018-09-10T12:31:08.356Z,35.62
2018-09-10T12:33:37.604Z,35.81
2018-09-10T12:36:07.157Z,35.16
2018-09-10T12:38:36.492Z,36.07
2018-09-10T12:41:05.364Z,35.14
2018-09-10T12:43:34.427Z,35.34
2018-09-10T12:46:03.347Z,35.90
2018-09-10T12:48:32.601Z,37.06
2018-09-10T12:51:01.535Z,36.89
2018-09-10T12:53:30.684Z,36.15
2018-09-10T12:55:59.540Z,36.52
2018-09-10T12:58:28.648Z,36.73
2018-09-10T13:00:57.615Z,36.16
2018-09-10T13:03:26.565Z,37.40
2018-09-10T13:05:55.504Z,37.87
2018-09-10T13:08:24.407Z,36.37
2018-09-10T13:10:53.208Z,36.09
2018-09-10T13:13:22.497Z,35.04
2018-09-10T13:15:51.407Z,35.51
2018-09-10T13:18:20.308Z,34.69
2018-09-10T13:20:49.480Z,35.58
2018-09-10T13:23:18.849Z,35.99
2018-09-10T13:25:48.081Z,35.91
2018-09-10T13:28:17.224Z,36.69
2018-09-10T13:30:46.177Z,35.25
2018-09-10T13:33:15.111Z,36.03
2018-09-10T13:35:44.117Z,37.04
2018-09-10T13:38:13.236Z,37.85
2018-09-10T13:40:42.149Z,37.68
2018-09-10T13:43:11.136Z,38.83
2018-09-10T13:45:40.895Z,38.97
2018-09-10T13:48:10.080Z,39.40
2018-09-10T13:50:39.137Z,41.96
2018-09-10T13:53:08.054Z,41.15
2018-09-10T13:55:36.973Z,42.50
2018-09-10T13:58:05.928Z,42.14
2018-09-10T14:00:34.803Z,41.35
2018-09-10T14:03:03.605Z,41.47
2018-09-10T14:05:32.569Z,40.73
2018-09-10T14:08:01.945Z,40.91
2018-09-10T14:10:30.794Z,40.61
2018-09-10T14:13:00.228Z,40.42
2018-09-10T14:15:29.366Z,40.55
2018-09-10T14:17:58.238Z,40.28
2018-09-10T14:20:27.211Z,39.77
2018-09-10T14:22:56.533Z,38.80
2018-09-10T14:25:25.440Z,38.13
2018-09-10T14:27:54.332Z,37.48
2018-09-10T14:30:23.432Z,37.55
2018-09-10T14:32:52.408Z,38.03
2018-09-10T14:35:21.548Z,37.49
2018-09-10T14:37:50.756Z,39.09
2018-09-10T14:40:20.072Z,38.14
2018-09-10T14:42:49.744Z,37.63
2018-09-10T14:45:18.588Z,37.52
2018-09-10T14:47:47.877Z,37.44
2018-09-10T14:50:17.307Z,38.46
2018-09-10T14:52:46.941Z,38.97
2018-09-10T14:55:16.083Z,38.72
2018-09-10T14:57:45.509Z,38.90
2018-09-10T15:00:19.888Z,39.19
2018-09-10T15:02:49.207Z,38.92
2018-09-10T15:05:18.501Z,38.86
2018-09-10T15:07:47.726Z,39.14
2018-09-10T15:10:16.796Z,39.14
2018-09-10T15:12:45.722Z,39.25
2018-09-10T15:15:15.144Z,39.63
2018-09-10T15:17:44.396Z,39.62
2018-09-10T15:20:13.813Z,39.55
2018-09-10T15:22:42.880Z,39.43
2018-09-10T15:25:11.918Z,39.27
2018-09-10T15:27:41.108Z,39.13
2018-09-10T15:30:10.361Z,39.49
2018-09-10T15:32:39.780Z,39.58
2018-09-10T15:35:08.993Z,39.45
2018-09-10T15:37:38.147Z,39.37
2018-09-10T15:40:07.344Z,39.57
2018-09-10T15:42:36.677Z,40.12
2018-09-10T15:45:05.656Z,39.96
2018-09-10T15:47:34.561Z,40.52
2018-09-10T15:50:03.538Z,40.92
2018-09-10T15:52:32.733Z,40.77
2018-09-10T15:55:02.308Z,40.96
2018-09-10T15:57:31.217Z,41.13
2018-09-10T16:00:00.360Z,41.19
2018-09-10T16:02:29.528Z,41.27
2018-09-10T16:04:58.493Z,41.78
2018-09-10T16:07:27.417Z,42.44
2018-09-10T16:09:56.277Z,42.97
2018-09-10T16:12:25.493Z,43.03
2018-09-10T16:14:54.308Z,43.21
2018-09-10T16:17:23.300Z,43.32
2018-09-10T16:19:52.152Z,43.84
2018-09-10T16:22:21.243Z,45.64
2018-09-10T16:24:50.429Z,48.80
2018-09-10T16:27:19.381Z,49.84
2018-09-10T16:29:48.273Z,51.06
2018-09-10T16:32:17.144Z,52.16
2018-09-10T16:34:46.180Z,54.71
2018-09-10T16:37:15.226Z,56.29
2018-09-10T16:39:44.159Z,57.11
2018-09-10T16:42:13.007Z,58.79
2018-09-10T16:44:41.924Z,62.10
2018-09-10T16:47:10.872Z,61.40
2018-09-10T16:49:40.068Z,61.14
2018-09-10T16:52:09.013Z,61.97
2018-09-10T16:54:38.154Z,62.02
2018-09-10T16:57:07.180Z,63.83
2018-09-10T16:59:36.628Z,64.46
2018-09-10T17:02:05.594Z,64.93
2018-09-10T17:04:34.565Z,64.66
2018-09-10T17:07:03.460Z,63.81
2018-09-10T17:09:32.757Z,63.99
2018-09-10T17:12:01.895Z,62.77
2018-09-10T17:14:31.157Z,63.31
2018-09-10T17:17:00.225Z,61.14
2018-09-10T17:19:29.083Z,61.83
2018-09-10T17:21:57.928Z,61.60
2018-09-10T17:24:26.925Z,61.33
2018-09-10T17:26:55.900Z,60.93
2018-09-10T17:29:25.098Z,61.17
2018-09-10T17:31:54.065Z,61.16
2018-09-10T17:34:22.944Z,61.44
2018-09-10T17:36:52.192Z,62.18
2018-09-10T17:39:21.568Z,62.57
2018-09-10T17:41:50.584Z,62.74
2018-09-10T17:44:19.952Z,63.75
2018-09-10T17:46:48.973Z,64.90
2018-09-10T17:49:17.847Z,64.89
2018-09-10T17:51:47.297Z,65.74
2018-09-10T17:54:16.225Z,65.44
2018-09-10T17:56:45.336Z,66.14
2018-09-10T17:59:14.680Z,65.59
2018-09-10T18:01:43.775Z,67.13
2018-09-10T18:04:13.260Z,65.32
2018-09-10T18:06:42.608Z,65.24
2018-09-10T18:09:12.600Z,66.75
2018-09-10T18:11:43.192Z,66.36
2018-09-10T18:14:12.559Z,67.30
2018-09-10T18:16:41.426Z,64.79
2018-09-10T18:19:10.751Z,65.45
2018-09-10T18:21:39.616Z,67.45
2018-09-10T18:24:08.924Z,66.71
2018-09-10T18:26:38.149Z,66.23
2018-09-10T18:29:07.556Z,64.90
2018-09-10T18:31:36.659Z,64.35
2018-09-10T18:34:05.967Z,64.89
2018-09-10T18:36:35.179Z,65.06
2018-09-10T18:39:04.576Z,66.54
2018-09-10T18:41:33.648Z,66.03
2018-09-10T18:44:02.963Z,64.20
2018-09-10T18:46:32.144Z,65.61
2018-09-10T18:49:01.475Z,65.57
2018-09-10T18:51:30.672Z,65.37
2018-09-10T18:53:59.724Z,66.97
2018-09-10T18:56:28.950Z,68.09
2018-09-10T18:58:58.348Z,68.93
2018-09-10T19:01:27.571Z,69.93
2018-09-10T19:03:56.544Z,69.28
2018-09-10T19:06:25.744Z,69.41
2018-09-10T19:08:54.957Z,70.21
2018-09-10T19:11:24.056Z,70.00
2018-09-10T19:13:53.280Z,71.28
2018-09-10T19:16:22.372Z,70.96
2018-09-10T19:18:51.379Z,70.57
2018-09-10T19:21:20.572Z,70.24
2018-09-10T19:23:49.501Z,71.22
2018-09-10T19:26:18.492Z,72.22
2018-09-10T19:28:47.782Z,72.15
2018-09-10T19:31:16.972Z,73.71
2018-09-10T19:33:46.285Z,73.88
2018-09-10T19:36:15.657Z,73.89
2018-09-10T19:38:44.918Z,72.85
2018-09-10T19:41:14.129Z,73.67
2018-09-10T19:43:43.156Z,75.17
2018-09-10T19:46:12.128Z,75.13
2018-09-10T19:48:41.088Z,75.82
2018-09-10T19:51:09.934Z,75.69
2018-09-10T19:53:38.817Z,76.83
2018-09-10T19:56:07.856Z,76.92
2018-09-10T19:58:36.842Z,76.39
2018-09-10T20:01:05.696Z,76.03
2018-09-10T20:03:34.617Z,76.86
2018-09-10T20:06:04.809Z,77.80
2018-09-10T20:08:33.758Z,79.15
2018-09-10T20:11:02.672Z,79.45
2018-09-10T20:13:31.677Z,80.64
2018-09-10T20:16:00.593Z,80.00
2018-09-10T20:18:29.620Z,80.21
2018-09-10T20:20:58.420Z,80.72
2018-09-10T20:23:27.708Z,80.73
2018-09-10T20:25:56.888Z,80.21
2018-09-10T20:28:26.522Z,80.48
2018-09-10T20:30:55.562Z,81.36
2018-09-10T20:33:25.206Z,82.34
2018-09-10T20:35:54.420Z,82.59
2018-09-10T20:38:23.525Z,83.12
2018-09-10T20:40:52.758Z,83.42
2018-09-10T20:43:21.658Z,83.95
2018-09-10T20:45:50.639Z,83.41
2018-09-10T20:48:19.795Z,83.99
2018-09-10T20:50:48.704Z,83.90
2018-09-10T20:53:17.993Z,84.76
2018-09-10T20:55:47.282Z,84.93
2018-09-10T20:58:16.325Z,83.30
2018-09-10T21:00:45.433Z,83.39
2018-09-10T21:03:14.824Z,83.42
2018-09-10T21:05:44.232Z,83.31
2018-09-10T21:08:13.549Z,82.50
2018-09-10T21:10:42.753Z,82.79
2018-09-10T21:13:12.005Z,82.76
2018-09-10T21:15:40.917Z,81.95
2018-09-10T21:18:09.783Z,82.03
2018-09-10T21:20:38.688Z,82.15
2018-09-10T21:23:07.601Z,82.69
2018-09-10T21:25:36.829Z,82.29
2018-09-10T21:28:05.887Z,82.67
2018-09-10T21:30:34.847Z,82.89
2018-09-10T21:33:04.108Z,83.20
2018-09-10T21:35:33.552Z,82.55
2018-09-10T21:38:02.697Z,82.04
2018-09-10T21:40:31.844Z,82.40
2018-09-10T21:43:00.969Z,83.53
2018-09-10T21:45:29.840Z,84.69
2018-09-10T21:47:58.959Z,85.26
2018-09-10T21:50:27.775Z,85.04
2018-09-10T21:52:56.732Z,84.39
2018-09-10T21:55:25.664Z,83.95
2018-09-10T21:57:54.570Z,83.45
2018-09-10T22:00:23.555Z,83.56
2018-09-10T22:02:53.018Z,82.16
2018-09-10T22:05:21.952Z,82.13
2018-09-10T22:07:51.221Z,83.34
2018-09-10T22:10:20.558Z,81.43
2018-09-10T22:12:49.879Z,81.69
2018-09-10T22:15:19.100Z,80.78
2018-09-10T22:17:48.368Z,80.91
2018-09-10T22:20:17.584Z,81.19
2018-09-10T22:22:46.691Z,80.58
2018-09-10T22:25:16.221Z,78.82
2018-09-10T22:27:45.279Z,78.69
2018-09-10T22:30:14.520Z,78.40
2018-09-10T22:32:43.843Z,78.58
2018-09-10T22:35:13.141Z,79.78
2018-09-10T22:37:42.272Z,80.89
2018-09-10T22:40:11.840Z,82.02
2018-09-10T22:42:41.229Z,81.68
2018-09-10T22:45:10.436Z,82.86
2018-09-10T22:47:39.327Z,83.29
2018-09-10T22:50:08.413Z,84.51
2018-09-10T22:52:37.395Z,84.90
2018-09-10T22:55:06.786Z,83.67
2018-09-10T22:57:35.820Z,81.71
2018-09-10T23:00:04.984Z,79.18
2018-09-10T23:02:34.104Z,78.59
2018-09-10T23:05:03.141Z,77.59
2018-09-10T23:07:32.084Z,76.68
2018-09-10T23:10:00.933Z,76.29
2018-09-10T23:12:29.839Z,76.20
2018-09-10T23:14:59.199Z,76.38
2018-09-10T23:17:28.126Z,76.99
2018-09-10T23:19:57.194Z,77.41
2018-09-10T23:22:26.028Z,78.58
2018-09-10T23:24:54.999Z,79.94
2018-09-10T23:27:23.851Z,81.44
2018-09-10T23:29:52.796Z,81.75
2018-09-10T23:32:21.855Z,82.75
2018-09-10T23:34:50.803Z,83.21
2018-09-10T23:37:20.288Z,84.39
2018-09-10T23:39:49.555Z,86.52
2018-09-10T23:42:19.108Z,87.94
2018-09-10T23:44:48.332Z,90.07
2018-09-10T23:47:17.464Z,90.44
2018-09-10T23:49:46.579Z,90.53
2018-09-10T23:52:15.820Z,91.26
2018-09-10T23:54:45.020Z,90.78
2018-09-10T23:57:14.434Z,90.87
2018-09-10T23:59:43.512Z,90.22
